Time;durP1;ratioP1;P1;durP2;ratioP2;P2;SDS_P1;SDS_P2;PMS_P1;PMS_P2;Temp;Humidity;BMP_temperature;BMP_pressure;BME280_temperature;BME280_humidity;BME280_pressure;Samples;Min_cycle;Max_cycle;Signal;HPM_P1;HPM_P2
2023/07/19 00:01:49;;;;;;;3.67;3.30;;;;;;;23.18;61.07;64402.03;5051299;28;20229;-82
2023/07/19 00:04:16;;;;;;;4.18;3.85;;;;;;;23.36;61.06;64421.44;5050516;28;20238;-84
2023/07/19 00:06:46;;;;;;;3.65;3.45;;;;;;;23.05;60.99;64386.38;5065977;27;20215;-84
2023/07/19 00:09:15;;;;;;;3.75;3.55;;;;;;;23.40;60.72;64427.69;5060258;28;20276;-82
2023/07/19 00:11:43;;;;;;;4.05;3.25;;;;;;;23.11;61.08;64394.72;5066463;27;20213;-82
2023/07/19 00:14:10;;;;;;;4.03;3.72;;;;;;;23.09;60.99;64392.63;5071027;27;20249;-84
2023/07/19 00:16:37;;;;;;;3.45;3.25;;;;;;;23.16;61.06;64400.47;5070061;27;20216;-84
2023/07/19 00:19:05;;;;;;;3.90;3.55;;;;;;;23.36;61.06;64426.09;5066336;27;20205;-83
2023/07/19 00:21:32;;;;;;;4.30;4.00;;;;;;;23.30;61.18;64414.59;5066492;27;20224;-83
2023/07/19 00:24:01;;;;;;;3.78;3.58;;;;;;;23.24;61.52;64408.84;5069823;28;20200;-84
2023/07/19 00:26:29;;;;;;;4.65;4.25;;;;;;;23.21;61.78;64408.28;5065684;28;20412;-84
2023/07/19 00:28:57;;;;;;;3.97;3.67;;;;;;;23.28;61.84;64418.25;5045489;28;20218;-84
2023/07/19 00:31:24;;;;;;;4.03;3.72;;;;;;;23.04;61.91;64395.72;5047229;28;20213;-82
2023/07/19 00:33:52;;;;;;;4.05;3.65;;;;;;;23.08;62.03;64397.31;5046731;27;20436;-83
2023/07/19 00:36:20;;;;;;;6.25;3.85;;;;;;;22.94;62.38;64380.06;5062480;28;20224;-82
2023/07/19 00:38:47;;;;;;;4.10;3.70;;;;;;;22.98;62.14;64379.06;5064713;27;20237;-84
2023/07/19 00:41:14;;;;;;;4.78;4.38;;;;;;;22.94;62.18;64380.06;5080124;27;20292;-81
2023/07/19 00:43:43;;;;;;;4.63;3.80;;;;;;;22.92;62.84;64378.50;5168424;27;20197;-82
2023/07/19 00:46:11;;;;;;;7.38;3.90;;;;;;;23.10;62.54;64396.81;5051608;27;20213;-82
2023/07/19 00:48:39;;;;;;;4.20;3.88;;;;;;;23.08;62.92;64397.31;5057664;27;20192;-82
2023/07/19 00:51:06;;;;;;;6.07;4.00;;;;;;;23.09;63.70;64395.25;5066800;28;20466;-83
2023/07/19 00:53:34;;;;;;;3.67;3.42;;;;;;;23.04;63.25;64387.91;5061742;28;20242;-83
2023/07/19 00:56:01;;;;;;;3.95;3.65;;;;;;;23.05;63.17;64391.56;5069548;27;20236;-84
2023/07/19 00:58:28;;;;;;;4.45;4.05;;;;;;;23.01;63.15;64384.78;5051037;28;20359;-83
2023/07/19 01:00:57;;;;;;;4.38;4.07;;;;;;;22.98;63.27;64378.53;5045440;27;20529;-84
2023/07/19 01:03:25;;;;;;;4.97;3.83;;;;;;;22.99;63.45;64385.28;5049702;28;20208;-81
2023/07/19 01:05:52;;;;;;;4.55;4.25;;;;;;;22.94;63.47;64380.06;5046692;27;20217;-83
2023/07/19 01:08:20;;;;;;;5.07;3.95;;;;;;;22.92;63.72;64374.84;5048097;28;20472;-81
2023/07/19 01:10:48;;;;;;;3.88;3.58;;;;;;;22.92;63.67;64375.38;5049623;27;20213;-82
2023/07/19 01:13:15;;;;;;;3.88;3.50;;;;;;;22.93;63.69;64379.53;5062308;27;20316;-84
2023/07/19 01:15:42;;;;;;;4.70;3.78;;;;;;;22.78;64.29;64361.25;5065292;27;20203;-82
2023/07/19 01:18:11;;;;;;;3.95;3.55;;;;;;;22.80;64.78;64365.41;5069045;27;20197;-83
2023/07/19 01:20:38;;;;;;;3.92;3.63;;;;;;;22.76;64.75;64361.75;5062362;27;20197;-83
2023/07/19 01:23:06;;;;;;;3.88;3.63;;;;;;;22.56;63.97;64343.44;5067740;27;20216;-82
2023/07/19 01:25:34;;;;;;;4.22;3.65;;;;;;;22.74;64.63;64351.38;5066156;28;20231;-84
2023/07/19 01:28:01;;;;;;;3.95;3.63;;;;;;;22.59;65.62;64340.88;5064414;28;20216;-82
2023/07/19 01:30:28;;;;;;;4.38;4.07;;;;;;;22.54;65.45;64330.97;5055791;27;20194;-83
2023/07/19 01:32:56;;;;;;;5.45;3.95;;;;;;;22.52;65.81;64331.44;5049090;28;20285;-83
2023/07/19 01:35:24;;;;;;;4.15;3.75;;;;;;;22.58;65.97;64342.94;5046852;28;20205;-83
2023/07/19 01:37:51;;;;;;;4.97;4.00;;;;;;;22.61;66.33;64348.16;5046391;28;20281;-82
2023/07/19 01:40:20;;;;;;;3.78;3.50;;;;;;;22.53;65.74;64337.69;5054203;28;20201;-83
2023/07/19 01:42:50;;;;;;;4.50;4.10;;;;;;;22.60;65.47;64341.91;5142485;27;20210;-84
2023/07/19 01:45:18;;;;;;;4.15;3.78;;;;;;;22.41;66.84;64322.03;5171541;27;20190;-84
2023/07/19 01:47:46;;;;;;;4.13;3.72;;;;;;;22.51;67.36;64338.19;5124944;27;20213;-83
2023/07/19 01:50:13;;;;;;;4.03;3.38;;;;;;;22.42;67.17;64323.06;5063007;27;20222;-84
2023/07/19 01:52:41;;;;;;;4.38;4.00;;;;;;;22.43;68.41;64327.25;5065491;27;20270;-83
2023/07/19 01:55:09;;;;;;;3.90;3.60;;;;;;;22.44;67.97;64327.75;5065981;27;20213;-83
2023/07/19 01:57:37;;;;;;;5.75;3.83;;;;;;;22.37;67.73;64320.97;5063963;28;20225;-83
2023/07/19 02:00:05;;;;;;;5.22;4.53;;;;;;;22.39;68.22;64325.13;5065724;27;20240;-83
2023/07/19 02:02:32;;;;;;;4.40;4.00;;;;;;;22.20;67.31;64305.78;5065448;27;20247;-81
2023/07/19 02:05:00;;;;;;;4.40;4.03;;;;;;;22.33;67.84;64313.66;5065086;27;20216;-82
2023/07/19 02:07:27;;;;;;;4.65;4.25;;;;;;;22.08;67.72;64285.47;5054187;28;20237;-82
2023/07/19 02:09:55;;;;;;;5.13;4.20;;;;;;;22.10;67.87;64287.56;5065041;27;20197;-82
2023/07/19 02:12:22;;;;;;;4.40;3.80;;;;;;;22.19;68.10;64304.75;5066254;28;20251;-83
2023/07/19 02:14:51;;;;;;;4.68;3.78;;;;;;;22.10;68.26;64294.81;5064927;27;20205;-83
2023/07/19 02:17:19;;;;;;;3.90;3.60;;;;;;;22.20;68.81;64294.88;5065129;27;20294;-84
2023/07/19 02:19:46;;;;;;;4.53;4.13;;;;;;;22.14;68.39;64293.81;5065366;28;20205;-83
2023/07/19 02:22:15;;;;;;;3.83;3.53;;;;;;;22.02;67.96;64283.88;5066007;28;20283;-84
2023/07/19 02:24:42;;;;;;;4.15;3.85;;;;;;;22.23;67.58;64303.19;5051557;27;20197;-83
2023/07/19 02:27:11;;;;;;;4.35;4.05;;;;;;;22.16;67.47;64301.09;5044733;28;20217;-83
2023/07/19 02:29:38;;;;;;;4.78;4.30;;;;;;;22.20;67.97;64300.06;5047972;27;20200;-84
2023/07/19 02:32:08;;;;;;;4.40;4.10;;;;;;;22.01;67.99;64282.81;5053017;27;20225;-83
2023/07/19 02:34:36;;;;;;;3.80;3.60;;;;;;;22.13;68.11;64293.28;5060670;27;20292;-80
2023/07/19 02:37:04;;;;;;;4.40;4.00;;;;;;;22.16;68.15;64299.00;5065488;28;20300;-79
2023/07/19 02:39:31;;;;;;;6.97;3.63;;;;;;;22.16;67.33;64295.91;5067061;28;20215;-82
2023/07/19 02:41:58;;;;;;;4.15;3.75;;;;;;;22.03;67.98;64282.31;5061525;28;20240;-81
2023/07/19 02:44:25;;;;;;;3.78;3.47;;;;;;;22.18;66.91;64297.97;5052106;28;20193;-79
2023/07/19 02:46:52;;;;;;;4.28;3.88;;;;;;;22.19;67.13;64301.63;5064263;28;20212;-82
2023/07/19 02:49:21;;;;;;;4.25;3.95;;;;;;;22.13;67.54;64293.28;5067681;28;20193;-82
2023/07/19 02:51:48;;;;;;;4.10;3.80;;;;;;;22.13;67.08;64298.47;5057754;27;20227;-82
2023/07/19 02:54:15;;;;;;;4.43;4.10;;;;;;;22.04;67.37;64285.97;5067976;27;20221;-80
2023/07/19 02:56:42;;;;;;;3.55;3.35;;;;;;;22.06;67.54;64285.44;5067385;28;20223;-82
2023/07/19 02:59:09;;;;;;;5.15;3.80;;;;;;;22.09;67.85;64289.09;5067601;28;20238;-82
2023/07/19 03:01:37;;;;;;;3.90;3.60;;;;;;;22.04;67.75;64289.06;5061749;27;20228;-81
2023/07/19 03:04:06;;;;;;;4.00;3.70;;;;;;;21.97;69.00;64276.56;5053664;28;20202;-81
2023/07/19 03:06:35;;;;;;;4.00;3.70;;;;;;;21.95;68.40;64276.53;5067914;28;20217;-82
2023/07/19 03:09:02;;;;;;;3.92;3.60;;;;;;;21.95;68.26;64276.53;5066749;28;20232;-82
2023/07/19 03:11:30;;;;;;;3.90;3.60;;;;;;;21.90;68.25;64271.84;5062767;28;20273;-81
2023/07/19 03:13:59;;;;;;;4.65;3.40;;;;;;;21.92;68.30;64270.81;5067431;28;20221;-81
2023/07/19 03:16:29;;;;;;;6.13;4.25;;;;;;;21.91;68.67;64270.28;5067299;27;20212;-83
2023/07/19 03:18:56;;;;;;;7.40;3.70;;;;;;;21.78;67.52;64257.22;5059095;27;20212;-83
2023/07/19 03:21:23;;;;;;;4.13;3.85;;;;;;;21.93;68.23;64272.38;5064628;28;20238;-82
2023/07/19 03:23:51;;;;;;;3.65;3.47;;;;;;;21.83;68.86;64266.59;5066823;27;20350;-82
2023/07/19 03:26:18;;;;;;;4.45;4.05;;;;;;;21.91;68.00;64272.88;5067954;28;20217;-83
2023/07/19 03:28:45;;;;;;;3.65;3.42;;;;;;;21.82;68.18;64260.88;5053660;28;20215;-82
2023/07/19 03:31:12;;;;;;;3.97;3.75;;;;;;;22.04;66.47;64286.47;5066880;27;20407;-82
2023/07/19 03:33:40;;;;;;;4.60;3.50;;;;;;;22.08;68.20;64287.53;5068992;28;20243;-82
2023/07/19 03:36:07;;;;;;;4.68;4.03;;;;;;;21.99;67.77;64278.66;5071227;27;20281;-82
2023/07/19 03:38:34;;;;;;;3.83;3.53;;;;;;;22.03;68.22;64284.91;5056610;27;20201;-81
2023/07/19 03:41:07;;;;;;;4.10;3.75;;;;;;;22.15;68.26;64295.38;5072609;27;20238;-82
2023/07/19 03:43:35;;;;;;;4.50;4.10;;;;;;;22.17;67.82;64300.06;5069913;27;20196;-82
2023/07/19 03:46:02;;;;;;;5.10;4.60;;;;;;;22.21;68.10;64301.63;5066822;27;20213;-81
2023/07/19 03:48:29;;;;;;;4.28;3.88;;;;;;;22.29;70.87;64309.50;5053865;27;20229;-80
2023/07/19 03:50:57;;;;;;;3.55;3.35;;;;;;;22.30;72.18;64307.94;5062406;28;20220;-82
2023/07/19 03:53:25;;;;;;;4.18;3.88;;;;;;;22.26;71.53;64303.75;5070467;28;20252;-81
2023/07/19 03:55:57;;;;;;;7.55;3.90;;;;;;;22.34;72.40;64319.91;5062555;27;20258;-81
2023/07/19 03:58:26;;;;;;;6.88;4.30;;;;;;;22.29;74.16;64312.59;5068411;27;20201;-81
2023/07/19 04:00:54;;;;;;;4.43;3.50;;;;;;;22.36;74.43;64317.34;5068050;27;20280;-83
2023/07/19 04:03:21;;;;;;;3.88;3.53;;;;;;;22.48;73.88;64334.53;5068859;27;20218;-81
2023/07/19 04:05:48;;;;;;;5.38;4.10;;;;;;;22.54;73.99;64335.63;5058989;28;20225;-85
2023/07/19 04:08:16;;;;;;;4.32;3.97;;;;;;;22.60;77.16;64344.50;5065537;28;20256;-81
2023/07/19 04:10:43;;;;;;;5.18;4.00;;;;;;;22.69;77.88;64354.44;5067421;27;20550;-80
2023/07/19 04:13:11;;;;;;;8.57;4.78;;;;;;;22.74;76.79;64357.06;5057532;27;20221;-80
2023/07/19 04:15:40;;;;;;;4.47;4.07;;;;;;;22.71;78.51;64353.44;5063930;28;20201;-82
2023/07/19 04:18:07;;;;;;;4.53;4.22;;;;;;;22.68;80.75;64345.59;5066847;28;20215;-82
2023/07/19 04:20:36;;;;;;;5.03;4.28;;;;;;;22.63;78.89;64345.03;5067286;27;20264;-83
2023/07/19 04:23:04;;;;;;;4.90;4.50;;;;;;;22.76;78.71;64361.25;5062254;27;20217;-81
2023/07/19 04:25:32;;;;;;;8.68;4.45;;;;;;;22.85;73.12;64373.25;5071046;28;20205;-81
2023/07/19 04:27:59;;;;;;;5.47;4.60;;;;;;;22.77;73.06;64362.28;5055080;28;20211;-83
2023/07/19 04:30:26;;;;;;;4.93;4.43;;;;;;;22.71;75.06;64353.44;5049783;28;20204;-83
2023/07/19 04:32:55;;;;;;;6.72;4.90;;;;;;;23.00;74.85;64381.16;5062708;28;20204;-83
2023/07/19 04:35:23;;;;;;;6.78;4.55;;;;;;;23.14;73.52;64401.00;5046116;28;20266;-82
2023/07/19 04:37:50;;;;;;;4.95;4.60;;;;;;;23.22;72.51;64409.34;5058685;28;20201;-82
2023/07/19 04:40:17;;;;;;;5.85;5.35;;;;;;;23.25;73.44;64412.50;5056851;28;20193;-83
2023/07/19 04:42:45;;;;;;;5.28;4.78;;;;;;;23.27;73.29;64408.84;5046631;28;20221;-83
2023/07/19 04:45:13;;;;;;;8.20;4.43;;;;;;;23.49;74.24;64440.22;5049115;28;20268;-81
2023/07/19 04:47:42;;;;;;;4.30;4.00;;;;;;;23.67;77.83;64453.84;5059103;28;20240;-84
2023/07/19 04:50:13;;;;;;;4.47;4.07;;;;;;;23.87;79.95;64477.38;5067449;28;20220;-80
2023/07/19 04:52:40;;;;;;;6.72;4.47;;;;;;;23.90;80.16;64477.91;5067864;28;20249;-83
2023/07/19 04:55:09;;;;;;;5.15;4.65;;;;;;;23.67;78.71;64456.47;5064487;27;20269;-84
2023/07/19 04:57:37;;;;;;;5.15;4.40;;;;;;;23.56;77.77;64444.94;5068154;27;20231;-84
2023/07/19 05:00:11;;;;;;;12.77;4.53;;;;;;;23.69;75.71;64455.94;5061095;27;20209;-84
2023/07/19 05:02:39;;;;;;;6.50;4.43;;;;;;;23.58;77.58;64444.44;5048868;28;20232;-82
2023/07/19 05:05:07;;;;;;;7.22;4.78;;;;;;;23.63;76.01;64449.66;5047804;28;20198;-83
2023/07/19 05:07:37;;;;;;;6.03;5.05;;;;;;;23.58;76.05;64439.25;5048620;28;20218;-82
2023/07/19 05:10:06;;;;;;;9.95;5.65;;;;;;;23.58;78.57;64446.50;5047211;28;20202;-83
2023/07/19 05:12:33;;;;;;;6.78;5.10;;;;;;;23.65;76.33;64459.56;5056816;27;20283;-81
2023/07/19 05:15:00;;;;;;;10.05;5.30;;;;;;;23.55;74.50;64443.91;5066679;27;20232;-80
2023/07/19 05:17:28;;;;;;;6.30;5.22;;;;;;;23.64;73.95;64455.41;5065242;27;20209;-83
2023/07/19 05:19:55;;;;;;;10.88;5.38;;;;;;;23.78;72.65;64464.84;5054949;28;20232;-84
2023/07/19 05:22:22;;;;;;;7.88;4.97;;;;;;;23.77;71.87;64461.72;5048133;27;20246;-81
2023/07/19 05:24:51;;;;;;;5.47;5.07;;;;;;;23.67;72.43;64456.47;5053865;28;20445;-83
2023/07/19 05:27:18;;;;;;;8.07;6.30;;;;;;;23.80;73.61;64472.66;5057204;27;20272;-83
2023/07/19 05:29:45;;;;;;;5.60;5.10;;;;;;;23.65;72.06;64453.84;5071076;28;20200;-81
2023/07/19 05:32:12;;;;;;;6.15;5.22;;;;;;;23.69;71.29;64460.63;5070737;27;20216;-83
2023/07/19 05:34:40;;;;;;;7.78;6.07;;;;;;;23.93;72.14;64475.88;5067547;28;20247;-82
2023/07/19 05:37:07;;;;;;;7.20;5.65;;;;;;;23.93;71.16;64481.06;5056983;27;20244;-81
2023/07/19 05:39:35;;;;;;;9.32;5.65;;;;;;;24.11;74.70;64499.38;5052477;28;20196;-83
2023/07/19 05:42:05;;;;;;;9.85;5.93;;;;;;;24.02;76.00;64490.00;5107004;27;20231;-82
2023/07/19 05:44:32;;;;;;;6.57;5.80;;;;;;;24.21;75.98;64511.94;5128140;27;20209;-82
2023/07/19 05:47:00;;;;;;;6.63;5.97;;;;;;;24.45;75.15;64532.41;5050342;28;20225;-83
2023/07/19 05:49:27;;;;;;;7.38;6.13;;;;;;;24.61;73.46;64553.84;5046043;28;20197;-82
2023/07/19 05:51:54;;;;;;;6.80;6.07;;;;;;;24.69;74.63;64557.00;5047905;28;20218;-80
2023/07/19 05:54:21;;;;;;;7.93;6.38;;;;;;;24.62;73.45;64554.88;5052432;28;20544;-84
2023/07/19 05:56:48;;;;;;;10.10;6.20;;;;;;;24.69;73.68;64562.22;5049247;27;20232;-82
2023/07/19 05:59:18;;;;;;;6.63;5.85;;;;;;;24.72;73.98;64562.75;5046153;28;20270;-82
2023/07/19 06:01:45;;;;;;;8.48;5.85;;;;;;;24.78;74.12;64572.16;5059362;28;20213;-82
2023/07/19 06:04:13;;;;;;;7.68;6.68;;;;;;;24.87;74.74;64578.47;5058919;28;20198;-83
2023/07/19 06:06:40;;;;;;;12.25;6.85;;;;;;;25.05;73.25;64599.94;5062515;28;20225;-82
2023/07/19 06:09:08;;;;;;;10.85;6.28;;;;;;;25.25;73.18;64623.47;5068467;28;20197;-82
2023/07/19 06:11:36;;;;;;;13.75;6.82;;;;;;;25.19;71.52;64612.00;5070905;27;20578;-81
2023/07/19 06:14:03;;;;;;;9.25;6.10;;;;;;;25.26;70.14;64624.53;5061759;28;20244;-84
2023/07/19 06:16:32;;;;;;;7.50;6.70;;;;;;;24.98;70.01;64593.13;5051476;28;20217;-83
2023/07/19 06:18:59;;;;;;;7.40;6.00;;;;;;;24.96;70.03;64588.41;5048844;28;20204;-83
2023/07/19 06:21:27;;;;;;;8.82;6.00;;;;;;;25.23;69.43;64610.97;5048696;27;20249;-82
2023/07/19 06:23:54;;;;;;;7.35;6.03;;;;;;;25.29;69.90;64622.47;5049291;28;20284;-82
2023/07/19 06:26:21;;;;;;;10.80;6.03;;;;;;;25.21;69.85;64616.69;5050567;28;20213;-83
2023/07/19 06:28:49;;;;;;;7.32;6.38;;;;;;;25.52;68.21;64646.59;5051237;27;20197;-83
2023/07/19 06:31:17;;;;;;;6.60;5.95;;;;;;;25.66;67.48;64661.25;5052394;27;20224;-83
2023/07/19 06:33:45;;;;;;;7.32;6.63;;;;;;;25.72;65.17;64667.53;5071272;27;20216;-82
2023/07/19 06:36:12;;;;;;;10.27;5.85;;;;;;;25.69;65.60;64663.88;5050467;27;20232;-81
2023/07/19 06:38:40;;;;;;;6.10;5.50;;;;;;;25.65;66.66;64654.47;5048810;28;20228;-81
2023/07/19 06:41:07;;;;;;;7.60;5.07;;;;;;;25.58;65.81;64652.34;5058246;27;20247;-82
2023/07/19 06:43:35;;;;;;;6.22;5.63;;;;;;;25.55;65.05;64651.81;5069405;27;20201;-83
2023/07/19 06:46:03;;;;;;;8.90;5.85;;;;;;;25.76;63.11;64671.22;5067530;28;20422;-82
2023/07/19 06:48:30;;;;;;;9.30;6.03;;;;;;;25.89;61.94;64687.44;5049823;27;20262;-83
2023/07/19 06:50:59;;;;;;;6.38;5.78;;;;;;;26.14;60.51;64705.84;5051396;28;20237;-83
2023/07/19 06:53:26;;;;;;;7.55;5.40;;;;;;;26.23;60.80;64719.97;5049589;27;20210;-80
2023/07/19 06:55:55;;;;;;;10.85;5.65;;;;;;;26.05;61.08;64699.53;5072584;27;20593;-82
2023/07/19 06:58:22;;;;;;;6.00;5.57;;;;;;;26.09;61.39;64703.72;5063575;28;20194;-82
2023/07/19 07:00:50;;;;;;;14.18;5.90;;;;;;;26.27;61.24;64726.78;5057476;28;20253;-83
2023/07/19 07:03:18;;;;;;;7.72;5.78;;;;;;;26.29;61.43;64729.41;5069131;28;20209;-83
2023/07/19 07:05:48;;;;;;;8.30;5.63;;;;;;;26.30;58.95;64733.06;5057103;27;20513;-83
2023/07/19 07:08:18;;;;;;;6.65;5.90;;;;;;;26.39;59.73;64737.28;5069826;27;20211;-83
2023/07/19 07:10:46;;;;;;;7.70;5.47;;;;;;;26.20;58.96;64717.88;5071985;28;20205;-82
2023/07/19 07:13:16;;;;;;;7.82;6.28;;;;;;;26.44;58.43;64739.38;5069428;27;20219;-83
2023/07/19 07:15:48;;;;;;;5.50;5.10;;;;;;;26.45;57.15;64748.78;5058209;27;20233;-80
2023/07/19 07:18:16;;;;;;;12.75;5.95;;;;;;;26.57;57.93;64756.16;5050598;27;20207;-80
2023/07/19 07:20:44;;;;;;;8.23;5.57;;;;;;;26.69;59.43;64765.63;5052426;27;20276;-81
2023/07/19 07:23:14;;;;;;;8.95;5.57;;;;;;;26.81;58.42;64780.81;5069176;27;20197;-81
2023/07/19 07:25:42;;;;;;;12.13;5.90;;;;;;;27.10;56.20;64811.22;5064971;27;20205;-83
2023/07/19 07:28:11;;;;;;;8.57;5.85;;;;;;;26.93;57.33;64793.94;5057621;27;20436;-83
2023/07/19 07:30:44;;;;;;;6.13;5.63;;;;;;;27.11;54.67;64817.53;5057305;27;20490;-82
2023/07/19 07:33:12;;;;;;;8.80;5.53;;;;;;;27.44;54.04;64846.41;5048006;27;20201;-82
2023/07/19 07:35:40;;;;;;;13.00;6.30;;;;;;;27.51;54.12;64859.00;5052083;27;20231;-82
2023/07/19 07:38:09;;;;;;;9.57;6.68;;;;;;;27.45;52.00;64847.97;5052941;28;20232;-80
2023/07/19 07:40:38;;;;;;;11.10;6.20;;;;;;;27.31;53.07;64833.28;5050383;28;22620;-82
2023/07/19 07:43:09;;;;;;;13.07;7.85;;;;;;;27.41;52.77;64845.88;5056810;27;20200;-82
2023/07/19 07:45:36;;;;;;;16.30;8.75;;;;;;;27.45;53.71;64845.38;5056405;27;20197;-83
2023/07/19 07:48:03;;;;;;;17.00;6.90;;;;;;;27.82;51.69;64889.41;5048786;28;20212;-82
2023/07/19 07:50:31;;;;;;;7.70;6.15;;;;;;;28.06;51.22;64908.88;5055878;28;20198;-81
2023/07/19 07:52:59;;;;;;;7.18;5.85;;;;;;;27.99;49.73;64902.03;5047004;27;20441;-80
2023/07/19 07:55:25;;;;;;;12.93;6.43;;;;;;;28.19;51.34;64925.66;5053515;27;20224;-82
2023/07/19 07:57:53;;;;;;;8.60;6.00;;;;;;;28.24;49.24;64930.91;5062645;27;20251;-82
2023/07/19 08:00:21;;;;;;;10.73;5.78;;;;;;;28.22;49.85;64928.81;5062599;28;20200;-82
2023/07/19 08:02:49;;;;;;;11.85;6.60;;;;;;;28.44;50.20;64954.00;5060553;27;20209;-82
2023/07/19 08:05:16;;;;;;;9.68;6.32;;;;;;;28.78;49.62;64989.22;5060501;27;20509;-83
2023/07/19 08:07:43;;;;;;;10.90;6.28;;;;;;;28.74;49.87;64977.69;5064874;27;20245;-83
2023/07/19 08:10:11;;;;;;;7.25;6.15;;;;;;;28.93;49.71;65005.50;5050972;27;20193;-82
2023/07/19 08:12:40;;;;;;;10.65;7.10;;;;;;;28.84;48.91;64996.03;5056007;27;20243;-83
2023/07/19 08:15:09;;;;;;;9.60;6.28;;;;;;;29.05;49.83;65017.56;5052395;27;20210;-82
2023/07/19 08:17:39;;;;;;;10.15;6.00;;;;;;;29.28;47.83;65033.91;5054877;28;20217;-80
2023/07/19 08:20:09;;;;;;;8.15;6.15;;;;;;;29.25;48.32;65036.00;5054689;28;20193;-85
2023/07/19 08:22:38;;;;;;;12.75;6.38;;;;;;;29.21;48.41;65026.53;5059316;27;20212;-83
2023/07/19 08:25:07;;;;;;;12.13;6.18;;;;;;;29.23;48.87;65034.41;5065563;27;20256;-84
2023/07/19 08:27:35;;;;;;;8.63;6.05;;;;;;;29.37;47.93;65053.84;5058587;28;20213;-83
2023/07/19 08:30:05;;;;;;;7.93;6.10;;;;;;;29.35;47.67;65049.13;5056685;28;20256;-81
2023/07/19 08:32:36;;;;;;;9.30;5.55;;;;;;;29.30;45.73;65047.00;5054954;28;20209;-83
2023/07/19 08:35:05;;;;;;;6.50;5.43;;;;;;;29.34;45.91;65045.44;5052614;28;23071;-83
2023/07/19 08:37:32;;;;;;;8.60;5.75;;;;;;;29.31;46.59;65042.81;5061717;27;20216;-80
2023/07/19 08:40:00;;;;;;;11.07;6.30;;;;;;;29.18;47.33;65029.16;5073003;27;20193;-81
2023/07/19 08:42:28;;;;;;;8.75;7.00;;;;;;;28.95;46.02;65012.31;5056913;28;20220;-80
2023/07/19 08:44:55;;;;;;;6.00;5.45;;;;;;;29.04;46.19;65014.44;5056256;28;20227;-81
2023/07/19 08:47:23;;;;;;;9.35;7.05;;;;;;;29.14;44.53;65022.34;5053051;28;20217;-83
2023/07/19 08:49:51;;;;;;;6.70;5.93;;;;;;;29.30;45.28;65041.25;5057546;27;20445;-83
2023/07/19 08:52:19;;;;;;;8.20;6.53;;;;;;;29.30;46.03;65043.88;5059770;27;20209;-82
2023/07/19 08:54:46;;;;;;;6.57;5.93;;;;;;;29.51;44.95;65061.22;5066839;27;20213;-81
2023/07/19 08:57:13;;;;;;;6.25;5.75;;;;;;;29.74;44.97;65087.50;5062370;28;20213;-81
2023/07/19 08:59:41;;;;;;;12.98;5.80;;;;;;;29.82;44.29;65098.53;5053431;27;20205;-83
2023/07/19 09:02:08;;;;;;;5.82;5.13;;;;;;;29.91;44.59;65102.22;5067303;27;20217;-81
2023/07/19 09:04:39;;;;;;;8.02;5.43;;;;;;;30.06;45.40;65118.00;5069696;28;20205;-83
2023/07/19 09:07:06;;;;;;;11.25;6.50;;;;;;;30.21;44.66;65141.63;5064350;28;20221;-81
2023/07/19 09:09:38;;;;;;;10.00;6.53;;;;;;;29.81;44.19;65094.84;5048383;28;20257;-82
2023/07/19 09:12:08;;;;;;;12.80;6.60;;;;;;;30.02;43.91;65116.94;5046546;28;20280;-81
2023/07/19 09:14:35;;;;;;;8.80;5.90;;;;;;;30.23;44.73;65141.66;5045672;28;20197;-81
2023/07/19 09:17:03;;;;;;;7.45;6.65;;;;;;;30.48;43.15;65167.94;5053714;28;20298;-81
2023/07/19 09:19:30;;;;;;;7.22;6.40;;;;;;;30.33;43.80;65154.81;5049789;27;20193;-82
2023/07/19 09:21:57;;;;;;;7.97;6.82;;;;;;;30.51;42.64;65170.59;5070557;28;20216;-85
2023/07/19 09:24:25;;;;;;;6.75;6.18;;;;;;;30.46;43.16;65168.47;5066633;27;20189;-81
2023/07/19 09:26:56;;;;;;;6.93;6.30;;;;;;;30.54;43.92;65176.91;5069706;27;20226;-81
2023/07/19 09:29:24;;;;;;;7.32;5.95;;;;;;;30.56;42.96;65176.34;5070740;27;20193;-83
2023/07/19 09:31:56;;;;;;;13.50;6.82;;;;;;;30.81;44.17;65204.78;5067333;28;20421;-80
2023/07/19 09:34:24;;;;;;;7.93;6.53;;;;;;;30.84;42.42;65202.66;5050595;27;20223;-83
2023/07/19 09:36:52;;;;;;;6.95;6.30;;;;;;;30.98;42.47;65216.88;5053570;28;20216;-83
2023/07/19 09:39:20;;;;;;;6.43;5.93;;;;;;;30.95;42.54;65216.88;5068667;28;20203;-82
2023/07/19 09:41:47;;;;;;;8.90;6.22;;;;;;;30.80;43.15;65203.75;5108151;27;20231;-84
2023/07/19 09:44:16;;;;;;;8.20;6.85;;;;;;;30.62;42.33;65179.50;5097072;27;20201;-82
2023/07/19 09:46:54;;;;;;;6.63;5.97;;;;;;;30.17;42.28;65137.44;5071926;27;20246;-85
2023/07/19 09:49:21;;;;;;;7.57;6.50;;;;;;;30.38;41.18;65156.91;5074038;28;20200;-81
2023/07/19 09:51:49;;;;;;;7.78;6.63;;;;;;;30.54;41.34;65169.00;5068817;28;20229;-81
2023/07/19 09:54:18;;;;;;;6.38;5.75;;;;;;;30.82;40.57;65202.69;5051945;28;20220;-82
2023/07/19 09:56:45;;;;;;;7.38;6.35;;;;;;;30.71;40.19;65188.97;5048814;28;20236;-83
2023/07/19 09:59:14;;;;;;;6.72;5.90;;;;;;;30.76;39.96;65196.34;5056232;28;20201;-82
2023/07/19 10:01:43;;;;;;;6.85;6.25;;;;;;;30.82;40.37;65200.06;5070327;27;20270;-80
2023/07/19 10:04:24;;;;;;;8.40;5.57;;;;;;;31.00;39.09;65224.75;5069158;28;20260;-81
2023/07/19 10:06:51;;;;;;;6.97;6.20;;;;;;;31.09;39.33;65228.97;5068925;27;20216;-84
2023/07/19 10:09:37;;;;;;;8.88;6.28;;;;;;;30.87;39.83;65207.94;5069027;27;20230;-81
2023/07/19 10:12:09;;;;;;;7.28;6.57;;;;;;;31.17;40.04;65237.38;5074029;27;20228;-80
2023/07/19 10:14:36;;;;;;;7.32;6.68;;;;;;;31.07;37.28;65226.34;5070211;27;20221;-81
2023/07/19 10:17:07;;;;;;;9.13;6.28;;;;;;;31.16;37.89;65241.06;5067296;27;20214;-81
2023/07/19 10:19:35;;;;;;;10.68;6.72;;;;;;;31.24;37.49;65244.22;5050150;28;20257;-82
2023/07/19 10:22:05;;;;;;;8.65;7.78;;;;;;;31.48;38.13;65280.56;5049889;27;20218;-82
2023/07/19 10:24:32;;;;;;;7.22;6.53;;;;;;;31.60;39.04;65284.75;5050053;28;20518;-83
2023/07/19 10:27:04;;;;;;;7.63;6.53;;;;;;;31.61;38.45;65283.19;5049916;28;20222;-82
2023/07/19 10:29:45;;;;;;;7.50;6.03;;;;;;;31.85;38.31;65308.44;5049473;28;20186;-81
2023/07/19 10:32:13;;;;;;;10.50;6.38;;;;;;;31.94;37.26;65317.41;5051759;28;20217;-83
2023/07/19 10:34:45;;;;;;;8.30;7.05;;;;;;;32.11;38.26;65335.31;5057958;27;20197;-82
2023/07/19 10:37:13;;;;;;;8.90;6.65;;;;;;;32.40;39.77;65369.03;5071991;27;20237;-80
2023/07/19 10:39:40;;;;;;;7.40;6.53;;;;;;;32.38;36.81;65366.38;5071629;28;20507;-79
2023/07/19 10:42:08;;;;;;;7.88;6.03;;;;;;;32.25;32.73;65355.84;5125727;27;20218;-82
2023/07/19 10:44:35;;;;;;;5.90;5.30;;;;;;;32.21;32.21;65348.47;5117363;27;20200;-79
2023/07/19 10:47:04;;;;;;;7.63;5.03;;;;;;;32.16;31.85;65337.94;5073139;27;20254;-83
2023/07/19 10:49:33;;;;;;;9.95;6.28;;;;;;;32.15;32.28;65340.03;5072418;27;20189;-82
2023/07/19 10:52:01;;;;;;;5.35;4.95;;;;;;;32.19;31.89;65343.72;5069834;27;20213;-84
2023/07/19 10:54:29;;;;;;;6.60;6.00;;;;;;;32.22;32.97;65352.16;5051189;28;20209;-81
2023/07/19 10:56:57;;;;;;;7.18;5.85;;;;;;;32.14;32.87;65339.00;5047686;27;20229;-81
2023/07/19 10:59:24;;;;;;;5.72;4.95;;;;;;;32.11;33.31;65335.84;5051888;28;20219;-81
2023/07/19 11:01:52;;;;;;;8.25;5.00;;;;;;;32.30;31.10;65357.94;5053671;28;20216;-81
2023/07/19 11:04:19;;;;;;;5.50;5.00;;;;;;;32.32;31.96;65362.69;5062351;27;20220;-81
2023/07/19 11:06:59;;;;;;;7.00;5.72;;;;;;;32.55;30.90;65376.91;5070343;28;20212;-82
2023/07/19 11:09:27;;;;;;;6.97;5.18;;;;;;;32.60;31.78;65390.06;5051550;27;20193;-82
2023/07/19 11:11:54;;;;;;;8.02;5.45;;;;;;;32.61;29.20;65385.34;5049040;27;20276;-83
2023/07/19 11:14:32;;;;;;;9.13;4.97;;;;;;;32.36;28.58;65361.63;5061383;28;20212;-81
2023/07/19 11:17:01;;;;;;;6.78;4.22;;;;;;;32.66;29.05;65391.13;5069782;27;20244;-82
2023/07/19 11:19:36;;;;;;;7.82;5.60;;;;;;;32.73;29.46;65406.41;5070108;28;20261;-83
2023/07/19 11:22:06;;;;;;;7.15;5.28;;;;;;;32.69;31.30;65396.38;5070379;28;20220;-81
2023/07/19 11:24:39;;;;;;;10.15;5.68;;;;;;;32.90;31.87;65417.97;5074678;28;20185;-84
2023/07/19 11:27:07;;;;;;;5.93;4.78;;;;;;;33.04;28.72;65438.03;5070317;28;20417;-80
2023/07/19 11:29:35;;;;;;;7.07;5.57;;;;;;;33.05;30.81;65439.59;5068405;27;20208;-83
2023/07/19 11:32:18;;;;;;;6.38;5.88;;;;;;;32.87;32.63;65412.19;5068559;28;20250;-82
2023/07/19 11:34:50;;;;;;;12.38;5.95;;;;;;;33.04;32.44;65438.56;5069333;28;20197;-82
2023/07/19 11:37:21;;;;;;;5.75;5.22;;;;;;;32.82;32.07;65410.09;5068301;28;20228;-82